createdAt,value
2018-09-13T00:00:49.662Z,10.17
2018-09-13T00:03:18.245Z,12.00
2018-09-13T00:05:46.746Z,11.37
2018-09-13T00:08:15.617Z,11.07
2018-09-13T00:10:44.023Z,15.37
2018-09-13T00:13:12.401Z,11.70
2018-09-13T00:15:40.747Z,11.60
2018-09-13T00:18:09.077Z,10.53
2018-09-13T00:20:37.561Z,9.97
2018-09-13T00:23:06.534Z,11.30
2018-09-13T00:25:34.876Z,14.97
2018-09-13T00:28:03.358Z,12.50
2018-09-13T00:30:31.761Z,12.93
2018-09-13T00:33:00.134Z,14.83
2018-09-13T00:35:28.438Z,10.33
2018-09-13T00:37:57.054Z,10.93
2018-09-13T00:40:25.689Z,12.37
2018-09-13T00:42:54.154Z,9.40
2018-09-13T00:45:22.498Z,10.23
2018-09-13T00:47:50.835Z,9.97
2018-09-13T00:50:19.196Z,9.50
2018-09-13T00:52:47.570Z,12.20
2018-09-13T00:55:15.893Z,11.80
2018-09-13T00:57:44.472Z,9.93
2018-09-13T01:00:12.808Z,9.37
2018-09-13T01:02:41.151Z,9.87
2018-09-13T01:05:09.649Z,7.50
2018-09-13T01:07:37.981Z,10.43
2018-09-13T01:10:06.345Z,10.53
2018-09-13T01:12:34.786Z,8.37
2018-09-13T01:15:03.219Z,7.57
2018-09-13T01:17:31.567Z,10.10
2018-09-13T01:19:59.942Z,7.73
2018-09-13T01:22:28.577Z,7.33
2018-09-13T01:24:57.301Z,7.43
2018-09-13T01:27:27.169Z,11.50
2018-09-13T01:29:56.109Z,8.13
2018-09-13T01:32:24.484Z,8.40
2018-09-13T01:34:53.277Z,7.30
2018-09-13T01:37:21.659Z,9.07
2018-09-13T01:39:50.222Z,7.13
2018-09-13T01:42:18.537Z,7.57
2018-09-13T01:44:47.230Z,9.80
2018-09-13T01:47:15.886Z,8.23
2018-09-13T01:49:44.318Z,8.10
2018-09-13T01:52:12.612Z,9.13
2018-09-13T01:54:41.033Z,10.03
2018-09-13T01:57:09.379Z,10.13
2018-09-13T01:59:37.796Z,8.00
2018-09-13T02:02:06.237Z,9.90
2018-09-13T02:04:34.568Z,10.03
2018-09-13T02:07:02.917Z,9.23
2018-09-13T02:09:31.267Z,11.80
2018-09-13T02:11:59.656Z,8.70
2018-09-13T02:14:28.089Z,9.50
2018-09-13T02:16:56.793Z,8.23
2018-09-13T02:19:25.157Z,8.67
2018-09-13T02:21:53.525Z,8.67
2018-09-13T02:24:21.853Z,12.00
2018-09-13T02:26:50.169Z,12.97
2018-09-13T02:29:18.486Z,12.53
2018-09-13T02:31:47.839Z,15.27
2018-09-13T02:34:16.314Z,14.77
2018-09-13T02:36:44.738Z,11.13
2018-09-13T02:39:13.105Z,11.40
2018-09-13T02:41:41.582Z,12.20
2018-09-13T02:44:10.340Z,15.43
2018-09-13T02:46:39.294Z,13.50
2018-09-13T02:49:07.948Z,14.67
2018-09-13T02:51:36.209Z,11.23
2018-09-13T02:54:04.567Z,11.00
2018-09-13T02:56:32.999Z,12.03
2018-09-13T02:59:01.313Z,10.03
2018-09-13T03:01:29.634Z,12.97
2018-09-13T03:03:58.071Z,14.70
2018-09-13T03:06:26.427Z,10.70
2018-09-13T03:08:54.770Z,9.50
2018-09-13T03:11:23.170Z,11.30
2018-09-13T03:13:51.501Z,12.50
2018-09-13T03:16:20.073Z,11.30
2018-09-13T03:18:48.594Z,13.70
2018-09-13T03:21:16.929Z,14.43
2018-09-13T03:23:45.331Z,15.17
2018-09-13T03:26:13.672Z,13.23
2018-09-13T03:28:42.153Z,12.27
2018-09-13T03:31:10.661Z,11.33
2018-09-13T03:33:39.183Z,12.23
2018-09-13T03:36:07.708Z,11.70
2018-09-13T03:38:36.149Z,14.17
2018-09-13T03:41:04.508Z,13.37
2018-09-13T03:43:32.870Z,13.50
2018-09-13T03:46:01.230Z,13.03
2018-09-13T03:48:29.581Z,11.53
2018-09-13T03:50:57.893Z,12.07
2018-09-13T03:53:26.565Z,10.60
2018-09-13T03:55:54.938Z,10.47
2018-09-13T03:58:23.299Z,13.03
2018-09-13T04:00:51.628Z,13.43
2018-09-13T04:03:20.110Z,9.93
2018-09-13T04:05:48.561Z,14.20
2018-09-13T04:08:17.061Z,14.80
2018-09-13T04:10:45.386Z,10.00
2018-09-13T04:13:13.830Z,10.13
2018-09-13T04:15:42.262Z,9.93
2018-09-13T04:18:10.629Z,9.77
2018-09-13T04:20:39.257Z,11.03
2018-09-13T04:23:07.599Z,13.00
2018-09-13T04:25:35.959Z,11.57
2018-09-13T04:28:04.286Z,12.33
2018-09-13T04:30:32.603Z,9.07
2018-09-13T04:33:00.960Z,8.83
2018-09-13T04:35:29.351Z,10.00
2018-09-13T04:37:57.789Z,10.13
2018-09-13T04:40:26.153Z,9.67
2018-09-13T04:42:54.506Z,10.20
2018-09-13T04:45:22.850Z,10.17
2018-09-13T04:47:52.594Z,14.70
2018-09-13T04:50:20.930Z,11.30
2018-09-13T04:52:49.251Z,10.67
2018-09-13T04:55:17.609Z,11.87
2018-09-13T04:57:46.011Z,12.30
2018-09-13T05:00:14.577Z,11.50
2018-09-13T05:02:43.165Z,11.50
2018-09-13T05:05:11.490Z,14.30
2018-09-13T05:07:39.843Z,13.77
2018-09-13T05:10:08.246Z,14.37
2018-09-13T05:12:36.622Z,11.57
2018-09-13T05:15:05.161Z,14.00
2018-09-13T05:17:33.682Z,12.57
2018-09-13T05:20:02.133Z,10.97
2018-09-13T05:22:30.554Z,14.87
2018-09-13T05:25:00.400Z,17.93
2018-09-13T05:27:28.735Z,14.47
2018-09-13T05:29:57.045Z,12.83
2018-09-13T05:32:25.457Z,14.40
2018-09-13T05:34:53.814Z,14.97
2018-09-13T05:37:22.257Z,13.63
2018-09-13T05:39:50.602Z,13.60
2018-09-13T05:42:18.931Z,13.20
2018-09-13T05:44:47.353Z,14.07
2018-09-13T05:47:15.734Z,15.80
2018-09-13T05:49:44.122Z,16.80
2018-09-13T05:52:12.696Z,21.80
2018-09-13T05:54:41.199Z,13.87
2018-09-13T05:57:09.541Z,15.60
2018-09-13T05:59:38.090Z,13.40
2018-09-13T06:02:13.161Z,15.43
2018-09-13T06:04:41.548Z,16.90
2018-09-13T06:07:09.941Z,16.53
2018-09-13T06:09:38.378Z,17.20
2018-09-13T06:12:06.744Z,15.47
2018-09-13T06:14:35.178Z,15.93
2018-09-13T06:17:03.638Z,15.83
2018-09-13T06:19:32.170Z,15.70
2018-09-13T06:22:00.554Z,13.57
2018-09-13T06:24:28.956Z,16.20
2018-09-13T06:26:57.446Z,15.90
2018-09-13T06:29:25.895Z,21.80
2018-09-13T06:31:54.173Z,21.40
2018-09-13T06:34:22.654Z,21.50
2018-09-13T06:36:51.065Z,21.30
2018-09-13T06:39:19.554Z,16.80
2018-09-13T06:41:48.058Z,23.80
2018-09-13T06:44:16.437Z,19.27
2018-09-13T06:46:44.860Z,15.63
2018-09-13T06:49:13.298Z,21.30
2018-09-13T06:51:41.638Z,19.20
2018-09-13T06:54:10.076Z,18.17
2018-09-13T06:56:38.545Z,17.30
2018-09-13T06:59:06.967Z,17.80
2018-09-13T07:01:35.356Z,20.87
2018-09-13T07:04:03.985Z,20.23
2018-09-13T07:06:32.357Z,21.93
2018-09-13T07:09:00.716Z,25.43
2018-09-13T07:11:29.045Z,20.67
2018-09-13T07:13:57.494Z,20.63
2018-09-13T07:16:25.901Z,23.87
2018-09-13T07:18:54.294Z,20.00
2018-09-13T07:21:22.637Z,22.60
2018-09-13T07:23:52.282Z,20.27
2018-09-13T07:26:20.606Z,22.13
2018-09-13T07:28:48.974Z,21.20
2018-09-13T07:31:17.327Z,17.90
2018-09-13T07:33:45.708Z,25.60
2018-09-13T07:36:14.113Z,20.50
2018-09-13T07:38:42.617Z,18.97
2018-09-13T07:41:10.962Z,18.20
2018-09-13T07:43:39.562Z,18.97
2018-09-13T07:46:07.881Z,15.67
2018-09-13T07:48:36.292Z,21.33
2018-09-13T07:51:04.732Z,20.77
2018-09-13T07:53:33.052Z,18.70
2018-09-13T07:56:01.453Z,16.50
2018-09-13T07:58:29.974Z,15.80
2018-09-13T08:00:58.310Z,15.53
2018-09-13T08:03:26.944Z,16.93
2018-09-13T08:05:55.263Z,15.33
2018-09-13T08:08:23.650Z,14.50
2018-09-13T08:10:52.011Z,13.33
2018-09-13T08:13:20.357Z,16.47
2018-09-13T08:15:48.697Z,15.30
2018-09-13T08:18:17.210Z,18.43
2018-09-13T08:20:45.601Z,18.20
2018-09-13T08:23:13.938Z,15.53
2018-09-13T08:25:42.598Z,19.27
2018-09-13T08:28:11.044Z,18.00
2018-09-13T08:30:39.485Z,15.70
2018-09-13T08:33:08.008Z,18.97
2018-09-13T08:35:37.373Z,17.07
2018-09-13T08:38:05.790Z,16.93
2018-09-13T08:40:34.273Z,15.33
2018-09-13T08:43:03.026Z,15.37
2018-09-13T08:45:31.489Z,19.57
2018-09-13T08:47:59.873Z,16.10
2018-09-13T08:50:28.441Z,13.00
2018-09-13T08:52:56.954Z,18.10
2018-09-13T08:55:26.509Z,16.47
2018-09-13T08:57:54.938Z,18.80
2018-09-13T09:00:23.253Z,16.97
2018-09-13T09:02:51.666Z,19.43
2018-09-13T09:05:20.061Z,14.53
2018-09-13T09:07:48.533Z,17.00
2018-09-13T09:10:16.876Z,19.50
2018-09-13T09:12:45.429Z,18.67
2018-09-13T09:15:13.844Z,15.50
2018-09-13T09:17:42.429Z,17.07
2018-09-13T09:20:10.832Z,18.30
2018-09-13T09:22:39.341Z,19.17
2018-09-13T09:25:07.966Z,20.50
2018-09-13T09:27:36.356Z,17.10
2018-09-13T09:30:05.291Z,19.53
2018-09-13T09:32:33.645Z,19.97
2018-09-13T09:35:02.111Z,19.00
2018-09-13T09:37:30.395Z,16.33
2018-09-13T09:39:58.832Z,20.90
2018-09-13T09:42:27.250Z,23.60
2018-09-13T09:44:55.654Z,22.93
2018-09-13T09:47:23.969Z,21.13
2018-09-13T09:49:52.369Z,20.83
2018-09-13T09:52:21.014Z,21.60
2018-09-13T09:54:49.367Z,26.87
2018-09-13T09:57:17.769Z,20.93
2018-09-13T09:59:46.139Z,19.10
2018-09-13T10:02:19.055Z,22.57
2018-09-13T10:04:48.093Z,20.87
2018-09-13T10:07:16.518Z,21.47
2018-09-13T10:09:45.620Z,16.73
2018-09-13T10:12:14.502Z,17.07
2018-09-13T10:14:47.137Z,20.33
2018-09-13T10:17:20.969Z,18.20
2018-09-13T10:19:54.686Z,16.73
2018-09-13T10:22:28.288Z,16.90
2018-09-13T10:25:02.028Z,15.30
2018-09-13T10:27:35.877Z,18.43
2018-09-13T10:30:09.930Z,19.60
2018-09-13T10:32:43.858Z,14.57
2018-09-13T10:35:17.585Z,17.67
2018-09-13T10:37:51.526Z,18.80
2018-09-13T10:40:25.096Z,16.57
2018-09-13T10:42:58.886Z,19.00
2018-09-13T10:46:36.634Z,14.37
2018-09-13T10:49:10.455Z,17.63
2018-09-13T10:51:44.278Z,17.73
2018-09-13T10:54:18.174Z,18.50
2018-09-13T10:56:46.453Z,14.53
2018-09-13T10:59:14.870Z,12.93
2018-09-13T11:01:43.169Z,13.37
2018-09-13T11:04:11.600Z,12.43
2018-09-13T11:06:39.898Z,11.73
2018-09-13T11:09:08.393Z,14.53
2018-09-13T11:11:36.722Z,15.17
2018-09-13T11:14:09.558Z,12.90
2018-09-13T11:16:37.915Z,16.47
2018-09-13T11:19:06.374Z,12.00
2018-09-13T11:21:34.845Z,15.77
2018-09-13T11:24:03.338Z,14.37
2018-09-13T11:26:31.838Z,15.67
2018-09-13T11:29:00.450Z,16.73
2018-09-13T11:31:28.771Z,13.60
2018-09-13T11:33:57.294Z,15.90
2018-09-13T11:36:25.670Z,11.80
2018-09-13T11:38:54.053Z,11.20
2018-09-13T11:41:22.397Z,10.60
2018-09-13T11:43:50.830Z,12.73
2018-09-13T11:46:25.091Z,14.17
2018-09-13T11:48:53.445Z,12.60
2018-09-13T11:51:21.989Z,11.57
2018-09-13T11:53:50.353Z,13.63
2018-09-13T11:56:18.706Z,11.97
2018-09-13T11:58:47.213Z,10.43
2018-09-13T12:01:15.598Z,13.30
2018-09-13T12:03:43.900Z,10.03
2018-09-13T12:06:12.569Z,13.93
2018-09-13T12:08:41.238Z,9.80
2018-09-13T12:11:09.628Z,12.30
2018-09-13T12:13:38.013Z,6.80
2018-09-13T12:16:07.743Z,7.20
2018-09-13T12:18:36.057Z,6.97
2018-09-13T12:21:04.425Z,8.50
2018-09-13T12:23:32.846Z,9.03
2018-09-13T12:26:01.304Z,12.77
2018-09-13T12:28:29.623Z,8.20
2018-09-13T12:30:58.136Z,9.20
2018-09-13T12:33:26.534Z,7.73
2018-09-13T12:35:55.022Z,7.20
2018-09-13T12:38:23.627Z,8.60
2018-09-13T12:40:52.067Z,9.67
2018-09-13T12:43:20.391Z,7.60
2018-09-13T12:45:48.944Z,10.70
2018-09-13T12:48:17.294Z,9.50
2018-09-13T12:50:45.993Z,9.23
2018-09-13T12:53:14.358Z,10.47
2018-09-13T12:55:48.257Z,9.83
2018-09-13T12:58:16.689Z,9.17
2018-09-13T13:00:45.134Z,9.50
2018-09-13T13:03:13.584Z,8.40
2018-09-13T13:05:41.961Z,8.77
2018-09-13T13:08:10.313Z,7.73
2018-09-13T13:10:38.778Z,7.87
2018-09-13T13:13:07.111Z,9.73
2018-09-13T13:15:35.582Z,9.60
2018-09-13T13:18:04.218Z,8.60
2018-09-13T13:20:32.625Z,11.20
2018-09-13T13:23:00.970Z,8.43
2018-09-13T13:25:29.621Z,7.00
2018-09-13T13:27:57.994Z,9.07
2018-09-13T13:30:26.692Z,5.67
2018-09-13T13:32:55.100Z,7.13
2018-09-13T13:35:23.548Z,9.23
2018-09-13T13:37:51.919Z,8.00
2018-09-13T13:40:20.669Z,6.53
2018-09-13T13:42:49.330Z,7.30
2018-09-13T13:45:17.680Z,8.07
2018-09-13T13:47:52.870Z,7.87
2018-09-13T13:50:21.266Z,9.03
2018-09-13T13:52:49.609Z,9.40
2018-09-13T13:55:17.970Z,9.83
2018-09-13T13:57:46.570Z,11.13
2018-09-13T14:00:15.156Z,9.00
2018-09-13T14:02:43.859Z,9.10
2018-09-13T14:05:12.272Z,6.83
2018-09-13T14:07:40.730Z,10.60
2018-09-13T14:10:09.184Z,10.27
2018-09-13T14:12:37.505Z,7.43
2018-09-13T14:15:06.658Z,6.30
2018-09-13T14:17:35.350Z,6.47
2018-09-13T14:20:03.845Z,5.53
2018-09-13T14:22:32.189Z,7.73
2018-09-13T14:25:00.600Z,5.17
2018-09-13T14:27:29.257Z,12.23
2018-09-13T14:29:57.764Z,6.97
2018-09-13T14:32:26.037Z,5.20
2018-09-13T14:34:54.535Z,6.50
2018-09-13T14:37:22.872Z,9.03
2018-09-13T14:39:51.189Z,9.20
2018-09-13T14:42:19.647Z,6.70
2018-09-13T14:44:47.970Z,7.13
2018-09-13T14:47:16.450Z,6.83
2018-09-13T14:49:44.782Z,7.50
2018-09-13T14:52:13.203Z,7.40
2018-09-13T14:54:41.692Z,8.03
2018-09-13T14:57:10.064Z,8.90
2018-09-13T14:59:38.385Z,7.03
2018-09-13T15:02:06.781Z,8.30
2018-09-13T15:04:35.379Z,7.23
2018-09-13T15:07:03.870Z,7.40
2018-09-13T15:09:32.189Z,7.13
2018-09-13T15:12:00.633Z,9.60
2018-09-13T15:14:29.036Z,9.13
2018-09-13T15:16:57.344Z,9.00
2018-09-13T15:19:25.718Z,13.83
2018-09-13T15:21:54.153Z,9.40
2018-09-13T15:24:22.751Z,10.83
2018-09-13T15:26:51.043Z,9.53
2018-09-13T15:29:19.721Z,18.43
2018-09-13T15:31:48.102Z,11.00
2018-09-13T15:34:16.452Z,7.30
2018-09-13T15:36:44.892Z,10.30
2018-09-13T15:39:13.649Z,7.53
2018-09-13T15:41:42.372Z,11.60
2018-09-13T15:44:10.742Z,9.87
2018-09-13T15:46:39.145Z,10.80
2018-09-13T15:49:07.892Z,9.93
2018-09-13T15:51:36.595Z,9.40
2018-09-13T15:54:05.110Z,10.03
2018-09-13T15:56:33.559Z,11.00
2018-09-13T15:59:01.925Z,13.63
2018-09-13T16:01:30.425Z,7.43
2018-09-13T16:03:58.766Z,6.73
2018-09-13T16:06:27.346Z,4.90
2018-09-13T16:08:55.704Z,5.40
2018-09-13T16:11:24.080Z,4.77
2018-09-13T16:13:52.484Z,5.30
2018-09-13T16:16:20.884Z,4.77
2018-09-13T16:18:49.219Z,4.07
2018-09-13T16:21:17.636Z,7.10
2018-09-13T16:23:45.974Z,6.40
2018-09-13T16:26:14.471Z,5.30
2018-09-13T16:28:42.814Z,4.90
2018-09-13T16:31:11.338Z,4.80
2018-09-13T16:33:39.911Z,4.93
2018-09-13T16:36:13.752Z,6.60
2018-09-13T16:38:48.494Z,4.17
2018-09-13T16:42:20.051Z,3.50
2018-09-13T16:44:54.481Z,5.20
2018-09-13T16:47:32.091Z,4.80
2018-09-13T16:50:01.990Z,4.33
2018-09-13T16:52:31.144Z,3.87
2018-09-13T16:54:59.598Z,3.93
2018-09-13T16:57:27.995Z,3.73
2018-09-13T16:59:56.355Z,3.80
2018-09-13T17:02:25.058Z,5.03
2018-09-13T17:04:53.754Z,5.03
2018-09-13T17:07:22.331Z,10.40
2018-09-13T17:09:50.666Z,4.03
2018-09-13T17:12:19.397Z,4.90
2018-09-13T17:14:47.909Z,4.80
2018-09-13T17:17:16.292Z,4.60
2018-09-13T17:19:44.646Z,4.17
2018-09-13T17:22:13.031Z,4.00
2018-09-13T17:24:41.429Z,3.70
2018-09-13T17:27:09.862Z,3.83
2018-09-13T17:29:38.248Z,4.93
2018-09-13T17:32:06.606Z,4.13
2018-09-13T17:34:35.038Z,4.27
2018-09-13T17:37:03.578Z,4.33
2018-09-13T17:39:32.083Z,7.30
2018-09-13T17:42:00.480Z,9.23
2018-09-13T17:44:28.976Z,5.17
2018-09-13T17:46:57.637Z,5.37
2018-09-13T17:49:25.973Z,4.23
2018-09-13T17:51:54.707Z,5.57
2018-09-13T17:54:23.115Z,7.13
2018-09-13T17:56:51.652Z,5.33
2018-09-13T17:59:20.007Z,7.00
2018-09-13T18:01:48.892Z,9.50
2018-09-13T18:04:17.260Z,8.77
2018-09-13T18:06:45.662Z,5.67
2018-09-13T18:09:14.057Z,6.77
2018-09-13T18:11:42.565Z,6.77
2018-09-13T18:14:11.089Z,8.50
2018-09-13T18:16:39.549Z,5.13
2018-09-13T18:19:07.966Z,5.40
2018-09-13T18:21:36.443Z,6.13
2018-09-13T18:24:05.038Z,10.07
2018-09-13T18:26:33.370Z,7.20
2018-09-13T18:29:01.822Z,6.73
2018-09-13T18:31:30.281Z,7.83
2018-09-13T18:33:58.788Z,5.43
2018-09-13T18:36:27.120Z,7.73
2018-09-13T18:38:55.542Z,6.10
2018-09-13T18:41:23.887Z,7.57
2018-09-13T18:43:52.246Z,7.03
2018-09-13T18:46:20.786Z,4.47
2018-09-13T18:48:49.314Z,6.47
2018-09-13T18:51:17.865Z,6.20
2018-09-13T18:53:46.247Z,5.90
2018-09-13T18:56:14.699Z,5.50
2018-09-13T18:58:43.164Z,6.47
2018-09-13T19:01:11.672Z,6.10
2018-09-13T19:03:40.047Z,6.63
2018-09-13T19:06:08.662Z,5.40
2018-09-13T19:08:37.005Z,5.23
2018-09-13T19:11:05.480Z,5.37
2018-09-13T19:13:33.973Z,8.77
2018-09-13T19:16:02.408Z,8.03
2018-09-13T19:18:30.838Z,8.93
2018-09-13T19:20:59.262Z,9.73
2018-09-13T19:23:27.628Z,9.93
2018-09-13T19:25:56.105Z,7.57
2018-09-13T19:28:24.636Z,8.90
2018-09-13T19:30:53.130Z,8.73
2018-09-13T19:33:21.567Z,10.97
2018-09-13T19:35:49.912Z,9.17
2018-09-13T19:38:18.577Z,8.63
2018-09-13T19:40:47.046Z,10.37
2018-09-13T19:43:15.531Z,7.43
2018-09-13T19:45:43.975Z,6.73
2018-09-13T19:48:12.633Z,6.73
2018-09-13T19:50:41.137Z,7.90
2018-09-13T19:53:09.579Z,7.00
2018-09-13T19:55:37.975Z,7.93
2018-09-13T19:58:06.472Z,8.30
2018-09-13T20:00:35.098Z,8.60
2018-09-13T20:03:03.495Z,7.37
2018-09-13T20:05:33.231Z,7.40
2018-09-13T20:08:01.724Z,9.43
2018-09-13T20:10:30.141Z,7.83
2018-09-13T20:12:58.658Z,6.93
2018-09-13T20:15:27.176Z,7.17
2018-09-13T20:17:55.808Z,10.87
2018-09-13T20:20:24.150Z,9.20
2018-09-13T20:22:52.512Z,9.73
2018-09-13T20:25:20.933Z,8.90
2018-09-13T20:27:49.315Z,11.90
2018-09-13T20:30:17.748Z,15.70
2018-09-13T20:32:46.132Z,8.87
2018-09-13T20:35:14.521Z,14.43
2018-09-13T20:37:42.877Z,8.93
2018-09-13T20:40:11.286Z,8.07
2018-09-13T20:42:39.761Z,7.53
2018-09-13T20:45:07.998Z,9.03
2018-09-13T20:47:36.492Z,8.23
2018-09-13T20:50:04.894Z,7.60
2018-09-13T20:52:33.326Z,8.63
2018-09-13T20:55:01.869Z,7.83
2018-09-13T20:57:30.202Z,8.00
2018-09-13T20:59:59.479Z,12.33
2018-09-13T21:02:27.874Z,10.87
2018-09-13T21:04:56.321Z,8.50
2018-09-13T21:07:24.963Z,10.60
2018-09-13T21:09:53.730Z,13.23
2018-09-13T21:12:22.337Z,13.20
2018-09-13T21:14:50.781Z,8.90
2018-09-13T21:17:19.214Z,9.60
2018-09-13T21:19:47.550Z,12.50
2018-09-13T21:22:16.337Z,11.50
2018-09-13T21:24:44.819Z,13.90
2018-09-13T21:27:13.254Z,13.10
2018-09-13T21:29:41.635Z,10.53
2018-09-13T21:32:10.006Z,12.07
2018-09-13T21:34:38.425Z,11.17
2018-09-13T21:37:08.200Z,12.57
2018-09-13T21:39:36.517Z,9.83
2018-09-13T21:42:04.842Z,10.37
2018-09-13T21:44:33.254Z,14.80
2018-09-13T21:47:01.662Z,10.93
2018-09-13T21:49:29.986Z,15.70
2018-09-13T21:51:58.319Z,14.23
2018-09-13T21:54:26.810Z,10.40
2018-09-13T21:56:55.162Z,16.10
2018-09-13T21:59:23.526Z,11.07
2018-09-13T22:01:51.877Z,16.97
2018-09-13T22:04:20.311Z,18.43
2018-09-13T22:06:48.769Z,15.57
2018-09-13T22:09:17.186Z,21.33
2018-09-13T22:11:45.614Z,12.90
2018-09-13T22:14:13.987Z,16.00
2018-09-13T22:16:42.617Z,16.83
2018-09-13T22:19:10.957Z,14.37
2018-09-13T22:21:39.418Z,15.33
2018-09-13T22:24:07.909Z,15.50
2018-09-13T22:26:36.381Z,17.50
2018-09-13T22:29:05.216Z,14.67
2018-09-13T22:31:34.426Z,17.17
2018-09-13T22:34:03.398Z,17.83
2018-09-13T22:36:31.726Z,15.70
2018-09-13T22:39:00.093Z,19.20
2018-09-13T22:41:28.502Z,19.13
2018-09-13T22:43:56.818Z,14.80
2018-09-13T22:46:25.202Z,18.77
2018-09-13T22:48:53.535Z,23.23
2018-09-13T22:51:21.845Z,25.17
2018-09-13T22:53:50.233Z,29.40
2018-09-13T22:56:18.570Z,26.80
2018-09-13T22:58:47.287Z,25.93
2018-09-13T23:01:15.701Z,26.93
2018-09-13T23:03:44.113Z,28.03
2018-09-13T23:06:12.582Z,27.17
2018-09-13T23:08:40.947Z,30.03
2018-09-13T23:11:09.649Z,25.93
2018-09-13T23:13:37.970Z,28.30
2018-09-13T23:16:06.709Z,28.43
2018-09-13T23:18:34.945Z,29.80
2018-09-13T23:21:03.501Z,30.87
2018-09-13T23:23:32.517Z,33.27
2018-09-13T23:26:00.854Z,33.37
2018-09-13T23:28:29.194Z,37.07
2018-09-13T23:30:57.662Z,38.50
2018-09-13T23:33:26.032Z,30.73
2018-09-13T23:35:54.362Z,31.70
2018-09-13T23:38:22.790Z,32.00
2018-09-13T23:40:51.418Z,34.07
2018-09-13T23:43:19.749Z,33.70
2018-09-13T23:45:48.101Z,37.70
2018-09-13T23:48:16.442Z,35.33
2018-09-13T23:50:44.770Z,43.53
2018-09-13T23:53:13.242Z,44.30
2018-09-13T23:55:41.794Z,43.50
2018-09-13T23:58:10.237Z,42.10
